sensor_id;sensor_type;location;lat;lon;timestamp;temperature;humidity
9949;DHT22;5013;51.840;8.276;2022-07-03T00:00:36;19.70;99.90
9949;DHT22;5013;51.840;8.276;2022-07-03T00:03:02;19.60;99.90
9949;DHT22;5013;51.840;8.276;2022-07-03T00:05:28;19.40;99.90
9949;DHT22;5013;51.840;8.276;2022-07-03T00:07:54;19.30;1.00
9949;DHT22;5013;51.840;8.276;2022-07-03T00:10:20;19.30;99.90
9949;DHT22;5013;51.840;8.276;2022-07-03T00:12:46;19.30;1.00
9949;DHT22;5013;51.840;8.276;2022-07-03T00:15:12;19.20;1.00
9949;DHT22;5013;51.840;8.276;2022-07-03T00:17:38;19.20;1.00
9949;DHT22;5013;51.840;8.276;2022-07-03T00:20:04;19.20;1.00
9949;DHT22;5013;51.840;8.276;2022-07-03T00:22:30;19.30;1.00
9949;DHT22;5013;51.840;8.276;2022-07-03T00:25:06;19.30;99.90
9949;DHT22;5013;51.840;8.276;2022-07-03T00:27:33;19.50;1.00
9949;DHT22;5013;51.840;8.276;2022-07-03T00:30:01;19.40;1.00
9949;DHT22;5013;51.840;8.276;2022-07-03T00:32:28;19.40;1.00
9949;DHT22;5013;51.840;8.276;2022-07-03T00:34:56;19.30;1.00
9949;DHT22;5013;51.840;8.276;2022-07-03T00:37:23;19.20;1.00
9949;DHT22;5013;51.840;8.276;2022-07-03T00:39:49;19.10;95.70
9949;DHT22;5013;51.840;8.276;2022-07-03T00:42:15;19.00;99.90
9949;DHT22;5013;51.840;8.276;2022-07-03T00:44:52;18.80;99.90
9949;DHT22;5013;51.840;8.276;2022-07-03T00:47:20;18.70;99.90
9949;DHT22;5013;51.840;8.276;2022-07-03T00:49:51;18.60;1.00
9949;DHT22;5013;51.840;8.276;2022-07-03T00:52:18;18.60;99.90
9949;DHT22;5013;51.840;8.276;2022-07-03T00:54:56;18.70;1.00
9949;DHT22;5013;51.840;8.276;2022-07-03T00:57:24;18.70;99.90
9949;DHT22;5013;51.840;8.276;2022-07-03T00:59:50;18.60;1.00
9949;DHT22;5013;51.840;8.276;2022-07-03T01:02:38;18.50;1.00
9949;DHT22;5013;51.840;8.276;2022-07-03T01:16:05;18.30;1.00
9949;DHT22;5013;51.840;8.276;2022-07-03T01:26:35;18.00;1.00
9949;DHT22;5013;51.840;8.276;2022-07-03T01:29:07;18.00;1.00
9949;DHT22;5013;51.840;8.276;2022-07-03T01:31:37;17.90;1.00
9949;DHT22;5013;51.840;8.276;2022-07-03T01:34:09;17.90;99.90
9949;DHT22;5013;51.840;8.276;2022-07-03T01:36:39;17.90;1.00
9949;DHT22;5013;51.840;8.276;2022-07-03T01:39:07;18.00;1.00
9949;DHT22;5013;51.840;8.276;2022-07-03T01:41:36;18.00;99.90
9949;DHT22;5013;51.840;8.276;2022-07-03T01:44:03;18.10;99.90
9949;DHT22;5013;51.840;8.276;2022-07-03T01:46:31;18.00;1.00
9949;DHT22;5013;51.840;8.276;2022-07-03T01:48:58;18.10;99.90
9949;DHT22;5013;51.840;8.276;2022-07-03T01:51:25;18.20;99.90
9949;DHT22;5013;51.840;8.276;2022-07-03T01:53:52;18.20;99.90
9949;DHT22;5013;51.840;8.276;2022-07-03T01:56:21;18.10;1.00
9949;DHT22;5013;51.840;8.276;2022-07-03T01:58:47;18.20;1.00
9949;DHT22;5013;51.840;8.276;2022-07-03T02:01:25;18.20;65.50
9949;DHT22;5013;51.840;8.276;2022-07-03T02:09:08;18.10;1.00
9949;DHT22;5013;51.840;8.276;2022-07-03T02:11:44;18.10;1.00
9949;DHT22;5013;51.840;8.276;2022-07-03T02:14:35;17.90;99.90
9949;DHT22;5013;51.840;8.276;2022-07-03T02:22:26;17.70;99.90
9949;DHT22;5013;51.840;8.276;2022-07-03T02:24:53;17.70;99.90
9949;DHT22;5013;51.840;8.276;2022-07-03T02:27:25;17.70;99.90
9949;DHT22;5013;51.840;8.276;2022-07-03T02:29:59;17.60;1.00
9949;DHT22;5013;51.840;8.276;2022-07-03T02:32:27;17.50;1.00
9949;DHT22;5013;51.840;8.276;2022-07-03T02:35:02;17.50;98.20
9949;DHT22;5013;51.840;8.276;2022-07-03T02:37:34;17.60;1.00
9949;DHT22;5013;51.840;8.276;2022-07-03T02:40:07;17.60;1.00
9949;DHT22;5013;51.840;8.276;2022-07-03T02:42:47;17.50;1.00
9949;DHT22;5013;51.840;8.276;2022-07-03T02:45:17;17.50;99.90
9949;DHT22;5013;51.840;8.276;2022-07-03T02:47:57;17.30;99.90
9949;DHT22;5013;51.840;8.276;2022-07-03T02:50:28;17.20;99.90
9949;DHT22;5013;51.840;8.276;2022-07-03T02:56:07;17.30;99.90
9949;DHT22;5013;51.840;8.276;2022-07-03T03:01:47;17.20;99.90
9949;DHT22;5013;51.840;8.276;2022-07-03T03:04:22;17.20;99.90
9949;DHT22;5013;51.840;8.276;2022-07-03T03:07:00;16.90;99.90
9949;DHT22;5013;51.840;8.276;2022-07-03T03:09:32;16.90;99.90
9949;DHT22;5013;51.840;8.276;2022-07-03T03:12:01;16.80;1.00
9949;DHT22;5013;51.840;8.276;2022-07-03T03:14:40;16.80;1.00
9949;DHT22;5013;51.840;8.276;2022-07-03T03:17:07;16.80;1.00
9949;DHT22;5013;51.840;8.276;2022-07-03T03:19:40;16.70;1.00
9949;DHT22;5013;51.840;8.276;2022-07-03T03:24:35;17.00;1.00
9949;DHT22;5013;51.840;8.276;2022-07-03T03:27:01;17.10;1.00
9949;DHT22;5013;51.840;8.276;2022-07-03T03:29:27;17.10;99.90
9949;DHT22;5013;51.840;8.276;2022-07-03T03:31:53;17.10;1.00
9949;DHT22;5013;51.840;8.276;2022-07-03T03:34:20;17.00;1.00
9949;DHT22;5013;51.840;8.276;2022-07-03T03:36:47;17.00;1.00
9949;DHT22;5013;51.840;8.276;2022-07-03T03:39:14;16.90;1.00
9949;DHT22;5013;51.840;8.276;2022-07-03T03:41:40;16.80;62.10
9949;DHT22;5013;51.840;8.276;2022-07-03T03:44:05;16.80;99.90
9949;DHT22;5013;51.840;8.276;2022-07-03T03:46:31;16.80;99.90
9949;DHT22;5013;51.840;8.276;2022-07-03T03:48:57;16.90;99.00
9949;DHT22;5013;51.840;8.276;2022-07-03T03:51:23;17.00;6.60
9949;DHT22;5013;51.840;8.276;2022-07-03T03:53:49;17.10;1.00
9949;DHT22;5013;51.840;8.276;2022-07-03T03:56:14;17.10;68.00
9949;DHT22;5013;51.840;8.276;2022-07-03T03:58:41;17.10;1.00
9949;DHT22;5013;51.840;8.276;2022-07-03T04:01:08;17.10;1.00
9949;DHT22;5013;51.840;8.276;2022-07-03T04:03:36;17.10;1.00
9949;DHT22;5013;51.840;8.276;2022-07-03T04:06:02;17.00;99.90
9949;DHT22;5013;51.840;8.276;2022-07-03T04:11:50;16.60;99.90
9949;DHT22;5013;51.840;8.276;2022-07-03T04:14:16;16.50;1.00
9949;DHT22;5013;51.840;8.276;2022-07-03T04:16:41;16.60;99.90
9949;DHT22;5013;51.840;8.276;2022-07-03T04:19:07;16.70;1.00
9949;DHT22;5013;51.840;8.276;2022-07-03T04:21:33;16.70;1.00
9949;DHT22;5013;51.840;8.276;2022-07-03T04:23:58;16.70;1.00
9949;DHT22;5013;51.840;8.276;2022-07-03T04:29:46;16.90;99.90
9949;DHT22;5013;51.840;8.276;2022-07-03T04:32:12;16.80;99.90
9949;DHT22;5013;51.840;8.276;2022-07-03T04:34:37;16.90;99.90
9949;DHT22;5013;51.840;8.276;2022-07-03T04:37:03;16.80;99.90
9949;DHT22;5013;51.840;8.276;2022-07-03T04:39:29;17.00;1.00
9949;DHT22;5013;51.840;8.276;2022-07-03T04:41:55;17.20;99.90
9949;DHT22;5013;51.840;8.276;2022-07-03T04:44:20;17.30;1.00
9949;DHT22;5013;51.840;8.276;2022-07-03T04:46:46;17.40;41.60
9949;DHT22;5013;51.840;8.276;2022-07-03T04:49:12;17.60;1.00
9949;DHT22;5013;51.840;8.276;2022-07-03T04:51:37;17.90;99.90
9949;DHT22;5013;51.840;8.276;2022-07-03T04:54:03;18.50;1.00
9949;DHT22;5013;51.840;8.276;2022-07-03T04:59:51;22.40;99.90
9949;DHT22;5013;51.840;8.276;2022-07-03T05:02:16;24.00;99.90
9949;DHT22;5013;51.840;8.276;2022-07-03T05:08:04;25.00;14.40
9949;DHT22;5013;51.840;8.276;2022-07-03T05:13:52;25.40;1.00
9949;DHT22;5013;51.840;8.276;2022-07-03T05:16:18;25.00;1.00
9949;DHT22;5013;51.840;8.276;2022-07-03T05:18:44;24.10;1.00
9949;DHT22;5013;51.840;8.276;2022-07-03T05:21:09;24.00;29.90
9949;DHT22;5013;51.840;8.276;2022-07-03T05:23:35;24.30;6.40
9949;DHT22;5013;51.840;8.276;2022-07-03T05:26:01;23.70;95.10
9949;DHT22;5013;51.840;8.276;2022-07-03T05:28:26;23.40;99.90
9949;DHT22;5013;51.840;8.276;2022-07-03T05:30:52;23.30;99.90
9949;DHT22;5013;51.840;8.276;2022-07-03T05:33:18;23.70;99.90
9949;DHT22;5013;51.840;8.276;2022-07-03T05:35:43;23.60;99.90
9949;DHT22;5013;51.840;8.276;2022-07-03T05:38:09;24.00;99.90
9949;DHT22;5013;51.840;8.276;2022-07-03T05:40:35;24.40;89.20
9949;DHT22;5013;51.840;8.276;2022-07-03T05:43:01;24.60;44.10
9949;DHT22;5013;51.840;8.276;2022-07-03T05:45:26;24.60;45.10
9949;DHT22;5013;51.840;8.276;2022-07-03T05:47:53;24.30;84.00
9949;DHT22;5013;51.840;8.276;2022-07-03T05:50:18;24.40;50.70
9949;DHT22;5013;51.840;8.276;2022-07-03T05:52:44;24.60;45.50
9949;DHT22;5013;51.840;8.276;2022-07-03T05:55:10;24.70;7.00
9949;DHT22;5013;51.840;8.276;2022-07-03T05:57:36;24.90;25.80
9949;DHT22;5013;51.840;8.276;2022-07-03T06:00:03;24.90;1.00
9949;DHT22;5013;51.840;8.276;2022-07-03T06:02:29;25.10;1.00
9949;DHT22;5013;51.840;8.276;2022-07-03T06:04:54;24.70;1.00
9949;DHT22;5013;51.840;8.276;2022-07-03T06:07:20;24.50;1.00
9949;DHT22;5013;51.840;8.276;2022-07-03T06:09:47;24.70;1.00
9949;DHT22;5013;51.840;8.276;2022-07-03T06:12:13;25.20;1.00
9949;DHT22;5013;51.840;8.276;2022-07-03T06:14:39;25.30;1.00
9949;DHT22;5013;51.840;8.276;2022-07-03T06:17:05;25.40;1.00
9949;DHT22;5013;51.840;8.276;2022-07-03T06:19:31;24.90;1.00
9949;DHT22;5013;51.840;8.276;2022-07-03T06:21:56;24.90;1.00
9949;DHT22;5013;51.840;8.276;2022-07-03T06:24:22;24.80;1.00
9949;DHT22;5013;51.840;8.276;2022-07-03T06:26:51;24.90;1.00
9949;DHT22;5013;51.840;8.276;2022-07-03T06:29:16;24.50;1.00
9949;DHT22;5013;51.840;8.276;2022-07-03T06:31:42;24.10;32.70
9949;DHT22;5013;51.840;8.276;2022-07-03T06:34:08;23.90;24.90
9949;DHT22;5013;51.840;8.276;2022-07-03T06:36:34;24.10;44.90
9949;DHT22;5013;51.840;8.276;2022-07-03T06:38:59;24.50;11.50
9949;DHT22;5013;51.840;8.276;2022-07-03T06:41:25;24.90;4.70
9949;DHT22;5013;51.840;8.276;2022-07-03T06:43:51;25.50;1.00
9949;DHT22;5013;51.840;8.276;2022-07-03T06:46:16;25.70;1.00
9949;DHT22;5013;51.840;8.276;2022-07-03T06:48:42;25.70;1.00
9949;DHT22;5013;51.840;8.276;2022-07-03T06:51:08;25.80;1.00
9949;DHT22;5013;51.840;8.276;2022-07-03T06:53:33;25.90;1.00
9949;DHT22;5013;51.840;8.276;2022-07-03T06:55:59;26.50;1.00
9949;DHT22;5013;51.840;8.276;2022-07-03T06:58:24;26.50;1.00
9949;DHT22;5013;51.840;8.276;2022-07-03T07:00:50;25.90;1.00
9949;DHT22;5013;51.840;8.276;2022-07-03T07:03:16;25.60;1.00
9949;DHT22;5013;51.840;8.276;2022-07-03T07:05:42;25.50;1.00
9949;DHT22;5013;51.840;8.276;2022-07-03T07:08:07;25.50;1.00
9949;DHT22;5013;51.840;8.276;2022-07-03T07:10:33;25.70;1.00
9949;DHT22;5013;51.840;8.276;2022-07-03T07:12:59;25.80;1.00
9949;DHT22;5013;51.840;8.276;2022-07-03T07:15:24;26.10;1.00
9949;DHT22;5013;51.840;8.276;2022-07-03T07:17:50;26.30;1.00
9949;DHT22;5013;51.840;8.276;2022-07-03T07:20:16;26.40;1.00
9949;DHT22;5013;51.840;8.276;2022-07-03T07:22:41;26.60;1.00
9949;DHT22;5013;51.840;8.276;2022-07-03T07:25:07;26.70;1.00
9949;DHT22;5013;51.840;8.276;2022-07-03T07:27:33;26.90;1.00
9949;DHT22;5013;51.840;8.276;2022-07-03T07:29:59;26.70;1.00
9949;DHT22;5013;51.840;8.276;2022-07-03T07:32:24;26.30;1.00
9949;DHT22;5013;51.840;8.276;2022-07-03T07:34:50;26.50;1.00
9949;DHT22;5013;51.840;8.276;2022-07-03T07:37:16;26.40;1.00
9949;DHT22;5013;51.840;8.276;2022-07-03T07:39:41;26.40;1.00
9949;DHT22;5013;51.840;8.276;2022-07-03T07:42:07;26.40;1.00
9949;DHT22;5013;51.840;8.276;2022-07-03T07:44:33;26.40;1.00
9949;DHT22;5013;51.840;8.276;2022-07-03T07:46:58;26.60;1.00
9949;DHT22;5013;51.840;8.276;2022-07-03T07:49:25;26.70;1.00
9949;DHT22;5013;51.840;8.276;2022-07-03T07:51:50;26.50;1.00
9949;DHT22;5013;51.840;8.276;2022-07-03T07:54:16;26.40;1.00
9949;DHT22;5013;51.840;8.276;2022-07-03T07:56:42;26.70;1.00
9949;DHT22;5013;51.840;8.276;2022-07-03T07:59:08;27.20;1.00
9949;DHT22;5013;51.840;8.276;2022-07-03T08:01:33;27.60;1.00
9949;DHT22;5013;51.840;8.276;2022-07-03T08:04:17;28.00;1.00
9949;DHT22;5013;51.840;8.276;2022-07-03T08:07:02;28.20;1.00
9949;DHT22;5013;51.840;8.276;2022-07-03T08:09:28;27.90;1.00
9949;DHT22;5013;51.840;8.276;2022-07-03T08:11:53;27.80;1.00
9949;DHT22;5013;51.840;8.276;2022-07-03T08:14:19;27.90;1.00
9949;DHT22;5013;51.840;8.276;2022-07-03T08:16:45;28.10;1.00
9949;DHT22;5013;51.840;8.276;2022-07-03T08:19:12;28.10;1.00
9949;DHT22;5013;51.840;8.276;2022-07-03T08:21:37;28.20;1.00
9949;DHT22;5013;51.840;8.276;2022-07-03T08:24:03;28.30;1.00
9949;DHT22;5013;51.840;8.276;2022-07-03T08:26:29;27.90;1.00
9949;DHT22;5013;51.840;8.276;2022-07-03T08:28:55;27.70;1.00
9949;DHT22;5013;51.840;8.276;2022-07-03T08:31:20;27.90;1.00
9949;DHT22;5013;51.840;8.276;2022-07-03T08:33:46;28.10;1.00
9949;DHT22;5013;51.840;8.276;2022-07-03T08:36:12;28.30;1.00
9949;DHT22;5013;51.840;8.276;2022-07-03T08:38:38;28.20;1.00
9949;DHT22;5013;51.840;8.276;2022-07-03T08:41:04;28.30;1.00
9949;DHT22;5013;51.840;8.276;2022-07-03T08:43:30;28.50;1.00
9949;DHT22;5013;51.840;8.276;2022-07-03T08:45:59;28.50;1.00
9949;DHT22;5013;51.840;8.276;2022-07-03T08:48:26;28.50;1.00
9949;DHT22;5013;51.840;8.276;2022-07-03T08:50:53;28.40;1.00
9949;DHT22;5013;51.840;8.276;2022-07-03T08:53:19;28.30;1.00
9949;DHT22;5013;51.840;8.276;2022-07-03T08:55:47;28.60;1.00
9949;DHT22;5013;51.840;8.276;2022-07-03T08:58:13;28.40;1.00
9949;DHT22;5013;51.840;8.276;2022-07-03T09:00:41;28.60;1.00
9949;DHT22;5013;51.840;8.276;2022-07-03T09:03:09;28.80;1.00
9949;DHT22;5013;51.840;8.276;2022-07-03T09:05:36;29.40;1.00
9949;DHT22;5013;51.840;8.276;2022-07-03T09:08:02;29.60;1.00
9949;DHT22;5013;51.840;8.276;2022-07-03T09:10:31;29.50;1.00
9949;DHT22;5013;51.840;8.276;2022-07-03T09:12:57;29.50;1.00
9949;DHT22;5013;51.840;8.276;2022-07-03T09:15:23;29.40;1.00
9949;DHT22;5013;51.840;8.276;2022-07-03T09:17:57;29.60;1.00
9949;DHT22;5013;51.840;8.276;2022-07-03T09:20:40;29.80;1.00
9949;DHT22;5013;51.840;8.276;2022-07-03T09:23:19;29.60;1.00
9949;DHT22;5013;51.840;8.276;2022-07-03T09:26:01;29.00;1.00
9949;DHT22;5013;51.840;8.276;2022-07-03T09:28:49;28.80;1.00
9949;DHT22;5013;51.840;8.276;2022-07-03T09:31:25;28.20;1.00
9949;DHT22;5013;51.840;8.276;2022-07-03T09:36:21;28.00;1.00
9949;DHT22;5013;51.840;8.276;2022-07-03T09:38:47;28.30;1.00
9949;DHT22;5013;51.840;8.276;2022-07-03T09:41:13;28.60;1.00
9949;DHT22;5013;51.840;8.276;2022-07-03T09:43:43;29.10;1.00
9949;DHT22;5013;51.840;8.276;2022-07-03T09:46:09;29.60;1.00
9949;DHT22;5013;51.840;8.276;2022-07-03T09:48:40;29.40;1.00
9949;DHT22;5013;51.840;8.276;2022-07-03T09:56:17;28.90;1.00
9949;DHT22;5013;51.840;8.276;2022-07-03T09:59:22;29.10;1.00
9949;DHT22;5013;51.840;8.276;2022-07-03T10:01:47;29.60;1.00
9949;DHT22;5013;51.840;8.276;2022-07-03T10:04:15;29.60;1.00
9949;DHT22;5013;51.840;8.276;2022-07-03T10:06:57;29.30;1.00
9949;DHT22;5013;51.840;8.276;2022-07-03T10:09:34;28.70;1.00
9949;DHT22;5013;51.840;8.276;2022-07-03T10:12:02;28.40;1.00
9949;DHT22;5013;51.840;8.276;2022-07-03T10:17:52;28.50;1.00
9949;DHT22;5013;51.840;8.276;2022-07-03T10:20:26;28.20;1.00
9949;DHT22;5013;51.840;8.276;2022-07-03T10:22:53;28.60;1.00
9949;DHT22;5013;51.840;8.276;2022-07-03T10:25:19;28.70;1.00
9949;DHT22;5013;51.840;8.276;2022-07-03T10:27:45;28.60;1.00
9949;DHT22;5013;51.840;8.276;2022-07-03T10:30:19;28.20;1.00
9949;DHT22;5013;51.840;8.276;2022-07-03T10:32:46;28.20;1.00
9949;DHT22;5013;51.840;8.276;2022-07-03T10:35:21;28.10;1.00
9949;DHT22;5013;51.840;8.276;2022-07-03T10:40:43;28.80;1.00
9949;DHT22;5013;51.840;8.276;2022-07-03T10:43:34;29.10;1.00
9949;DHT22;5013;51.840;8.276;2022-07-03T10:46:24;29.20;1.00
9949;DHT22;5013;51.840;8.276;2022-07-03T10:51:22;29.10;1.00
9949;DHT22;5013;51.840;8.276;2022-07-03T10:53:49;29.10;1.00
9949;DHT22;5013;51.840;8.276;2022-07-03T10:56:15;29.50;1.00
9949;DHT22;5013;51.840;8.276;2022-07-03T10:58:56;29.50;1.00
9949;DHT22;5013;51.840;8.276;2022-07-03T11:01:28;29.00;1.00
9949;DHT22;5013;51.840;8.276;2022-07-03T11:03:58;28.70;1.00
9949;DHT22;5013;51.840;8.276;2022-07-03T11:09:22;28.90;1.00
9949;DHT22;5013;51.840;8.276;2022-07-03T11:11:48;28.90;1.00
9949;DHT22;5013;51.840;8.276;2022-07-03T11:14:21;29.10;1.00
9949;DHT22;5013;51.840;8.276;2022-07-03T11:16:47;29.40;1.00
9949;DHT22;5013;51.840;8.276;2022-07-03T11:19:12;29.90;1.00
9949;DHT22;5013;51.840;8.276;2022-07-03T11:21:42;30.30;1.00
9949;DHT22;5013;51.840;8.276;2022-07-03T11:27:20;30.40;1.00
9949;DHT22;5013;51.840;8.276;2022-07-03T11:29:55;30.10;1.00
9949;DHT22;5013;51.840;8.276;2022-07-03T11:32:52;29.70;1.00
9949;DHT22;5013;51.840;8.276;2022-07-03T11:38:39;29.90;1.00
9949;DHT22;5013;51.840;8.276;2022-07-03T11:41:09;29.60;1.00
9949;DHT22;5013;51.840;8.276;2022-07-03T11:43:35;29.60;1.00
9949;DHT22;5013;51.840;8.276;2022-07-03T11:46:18;29.60;1.00
9949;DHT22;5013;51.840;8.276;2022-07-03T11:48:44;30.00;1.00
9949;DHT22;5013;51.840;8.276;2022-07-03T11:51:10;30.00;1.00
9949;DHT22;5013;51.840;8.276;2022-07-03T11:53:38;30.30;1.00
9949;DHT22;5013;51.840;8.276;2022-07-03T11:56:12;30.40;1.00
9949;DHT22;5013;51.840;8.276;2022-07-03T11:58:51;29.90;1.00
9949;DHT22;5013;51.840;8.276;2022-07-03T12:04:05;29.50;1.00
9949;DHT22;5013;51.840;8.276;2022-07-03T12:09:00;29.70;1.00
9949;DHT22;5013;51.840;8.276;2022-07-03T12:11:26;29.20;1.00
9949;DHT22;5013;51.840;8.276;2022-07-03T12:13:51;29.10;1.00
9949;DHT22;5013;51.840;8.276;2022-07-03T12:16:18;29.50;1.00
9949;DHT22;5013;51.840;8.276;2022-07-03T12:22:06;29.70;1.00
9949;DHT22;5013;51.840;8.276;2022-07-03T12:24:33;29.20;1.00
9949;DHT22;5013;51.840;8.276;2022-07-03T12:30:23;29.10;1.00
9949;DHT22;5013;51.840;8.276;2022-07-03T12:32:53;29.20;1.00
9949;DHT22;5013;51.840;8.276;2022-07-03T12:35:27;29.70;1.00
9949;DHT22;5013;51.840;8.276;2022-07-03T12:37:53;30.00;1.00
9949;DHT22;5013;51.840;8.276;2022-07-03T12:43:41;30.30;1.00
9949;DHT22;5013;51.840;8.276;2022-07-03T12:49:29;30.40;1.00
9949;DHT22;5013;51.840;8.276;2022-07-03T12:51:57;29.70;1.00
9949;DHT22;5013;51.840;8.276;2022-07-03T12:54:32;29.40;1.00
9949;DHT22;5013;51.840;8.276;2022-07-03T12:57:04;29.50;1.00
9949;DHT22;5013;51.840;8.276;2022-07-03T13:00:13;29.70;1.00
9949;DHT22;5013;51.840;8.276;2022-07-03T13:02:44;30.00;1.00
9949;DHT22;5013;51.840;8.276;2022-07-03T13:05:21;30.10;1.00
9949;DHT22;5013;51.840;8.276;2022-07-03T13:07:49;30.10;1.00
9949;DHT22;5013;51.840;8.276;2022-07-03T13:10:16;30.20;1.00
9949;DHT22;5013;51.840;8.276;2022-07-03T13:12:47;30.30;1.00
9949;DHT22;5013;51.840;8.276;2022-07-03T13:15:14;30.40;1.00
9949;DHT22;5013;51.840;8.276;2022-07-03T13:17:57;30.30;1.00
9949;DHT22;5013;51.840;8.276;2022-07-03T13:22:54;30.40;1.00
9949;DHT22;5013;51.840;8.276;2022-07-03T13:28:42;30.10;1.00
9949;DHT22;5013;51.840;8.276;2022-07-03T13:31:08;29.80;1.00
9949;DHT22;5013;51.840;8.276;2022-07-03T13:33:35;29.80;1.00
9949;DHT22;5013;51.840;8.276;2022-07-03T13:36:00;29.70;1.00
9949;DHT22;5013;51.840;8.276;2022-07-03T13:38:26;29.60;1.00
9949;DHT22;5013;51.840;8.276;2022-07-03T13:40:52;29.30;1.00
9949;DHT22;5013;51.840;8.276;2022-07-03T13:43:17;29.20;1.00
9949;DHT22;5013;51.840;8.276;2022-07-03T13:45:43;29.30;1.00
9949;DHT22;5013;51.840;8.276;2022-07-03T13:48:09;29.50;1.00
9949;DHT22;5013;51.840;8.276;2022-07-03T13:53:56;30.10;1.00
9949;DHT22;5013;51.840;8.276;2022-07-03T13:56:23;29.90;1.00
9949;DHT22;5013;51.840;8.276;2022-07-03T13:58:48;29.70;1.00
9949;DHT22;5013;51.840;8.276;2022-07-03T14:01:14;29.20;1.00
9949;DHT22;5013;51.840;8.276;2022-07-03T14:03:40;29.00;1.00
9949;DHT22;5013;51.840;8.276;2022-07-03T14:06:05;29.20;1.00
9949;DHT22;5013;51.840;8.276;2022-07-03T14:08:31;29.30;1.00
9949;DHT22;5013;51.840;8.276;2022-07-03T14:10:57;29.40;1.00
9949;DHT22;5013;51.840;8.276;2022-07-03T14:13:23;29.50;1.00
9949;DHT22;5013;51.840;8.276;2022-07-03T14:15:48;29.70;1.00
9949;DHT22;5013;51.840;8.276;2022-07-03T14:18:14;29.50;1.00
9949;DHT22;5013;51.840;8.276;2022-07-03T14:20:40;29.40;1.00
9949;DHT22;5013;51.840;8.276;2022-07-03T14:23:06;29.50;1.00
9949;DHT22;5013;51.840;8.276;2022-07-03T14:25:32;29.40;1.00
9949;DHT22;5013;51.840;8.276;2022-07-03T14:27:57;29.20;1.00
9949;DHT22;5013;51.840;8.276;2022-07-03T14:30:41;29.20;1.00
9949;DHT22;5013;51.840;8.276;2022-07-03T14:36:47;28.90;1.00
9949;DHT22;5013;51.840;8.276;2022-07-03T14:39:13;29.10;1.00
9949;DHT22;5013;51.840;8.276;2022-07-03T14:41:39;29.30;1.00
9949;DHT22;5013;51.840;8.276;2022-07-03T14:44:05;29.40;1.00
9949;DHT22;5013;51.840;8.276;2022-07-03T14:46:31;29.40;1.00
9949;DHT22;5013;51.840;8.276;2022-07-03T14:48:57;29.10;1.00
9949;DHT22;5013;51.840;8.276;2022-07-03T14:51:23;29.10;1.00
9949;DHT22;5013;51.840;8.276;2022-07-03T14:53:48;29.10;1.00
9949;DHT22;5013;51.840;8.276;2022-07-03T14:56:18;29.10;1.00
9949;DHT22;5013;51.840;8.276;2022-07-03T14:58:46;28.90;1.00
9949;DHT22;5013;51.840;8.276;2022-07-03T15:01:13;29.00;1.00
9949;DHT22;5013;51.840;8.276;2022-07-03T15:04:05;28.90;1.00
9949;DHT22;5013;51.840;8.276;2022-07-03T15:06:33;28.90;1.00
9949;DHT22;5013;51.840;8.276;2022-07-03T15:09:03;29.00;1.00
9949;DHT22;5013;51.840;8.276;2022-07-03T15:11:46;28.80;1.00
9949;DHT22;5013;51.840;8.276;2022-07-03T15:14:32;28.50;1.00
9949;DHT22;5013;51.840;8.276;2022-07-03T15:16:59;28.60;1.00
9949;DHT22;5013;51.840;8.276;2022-07-03T15:19:26;28.60;1.00
9949;DHT22;5013;51.840;8.276;2022-07-03T15:21:53;28.80;1.00
9949;DHT22;5013;51.840;8.276;2022-07-03T15:24:20;28.70;1.00
9949;DHT22;5013;51.840;8.276;2022-07-03T15:26:51;28.70;1.00
9949;DHT22;5013;51.840;8.276;2022-07-03T15:29:18;28.80;1.00
9949;DHT22;5013;51.840;8.276;2022-07-03T15:31:46;28.90;1.00
9949;DHT22;5013;51.840;8.276;2022-07-03T15:34:12;28.80;1.00
9949;DHT22;5013;51.840;8.276;2022-07-03T15:36:50;28.80;1.00
9949;DHT22;5013;51.840;8.276;2022-07-03T15:39:30;28.90;1.00
9949;DHT22;5013;51.840;8.276;2022-07-03T15:42:29;28.70;1.00
9949;DHT22;5013;51.840;8.276;2022-07-03T15:47:53;28.50;1.00
9949;DHT22;5013;51.840;8.276;2022-07-03T15:53:11;28.10;1.00
9949;DHT22;5013;51.840;8.276;2022-07-03T15:55:43;28.10;1.00
9949;DHT22;5013;51.840;8.276;2022-07-03T15:58:13;28.20;1.00
9949;DHT22;5013;51.840;8.276;2022-07-03T16:00:40;28.20;1.00
9949;DHT22;5013;51.840;8.276;2022-07-03T16:03:27;28.20;1.00
9949;DHT22;5013;51.840;8.276;2022-07-03T16:05:56;28.20;1.00
9949;DHT22;5013;51.840;8.276;2022-07-03T16:08:28;28.00;1.00
9949;DHT22;5013;51.840;8.276;2022-07-03T16:10:55;27.70;1.00
9949;DHT22;5013;51.840;8.276;2022-07-03T16:16:43;27.60;1.00
9949;DHT22;5013;51.840;8.276;2022-07-03T16:19:11;27.80;1.00
9949;DHT22;5013;51.840;8.276;2022-07-03T16:21:38;27.90;1.00
9949;DHT22;5013;51.840;8.276;2022-07-03T16:24:05;27.70;1.00
9949;DHT22;5013;51.840;8.276;2022-07-03T16:26:35;27.70;1.00
9949;DHT22;5013;51.840;8.276;2022-07-03T16:29:02;27.70;1.00
9949;DHT22;5013;51.840;8.276;2022-07-03T16:31:32;27.60;1.00
9949;DHT22;5013;51.840;8.276;2022-07-03T16:34:09;27.60;1.00
9949;DHT22;5013;51.840;8.276;2022-07-03T16:36:37;27.60;1.00
9949;DHT22;5013;51.840;8.276;2022-07-03T16:39:06;27.40;1.00
9949;DHT22;5013;51.840;8.276;2022-07-03T16:41:34;27.30;1.00
9949;DHT22;5013;51.840;8.276;2022-07-03T16:44:04;27.20;1.00
9949;DHT22;5013;51.840;8.276;2022-07-03T16:46:31;27.00;1.00
9949;DHT22;5013;51.840;8.276;2022-07-03T16:48:58;26.80;1.00
9949;DHT22;5013;51.840;8.276;2022-07-03T16:54:48;26.50;1.00
9949;DHT22;5013;51.840;8.276;2022-07-03T16:57:15;26.20;1.00
9949;DHT22;5013;51.840;8.276;2022-07-03T16:59:44;26.10;1.00
9949;DHT22;5013;51.840;8.276;2022-07-03T17:02:14;26.10;1.00
9949;DHT22;5013;51.840;8.276;2022-07-03T17:04:42;26.00;1.00
9949;DHT22;5013;51.840;8.276;2022-07-03T17:07:09;25.90;1.00
9949;DHT22;5013;51.840;8.276;2022-07-03T17:09:36;25.90;1.00
9949;DHT22;5013;51.840;8.276;2022-07-03T17:12:04;26.10;1.00
9949;DHT22;5013;51.840;8.276;2022-07-03T17:14:30;26.10;1.00
9949;DHT22;5013;51.840;8.276;2022-07-03T17:17:02;26.10;1.00
9949;DHT22;5013;51.840;8.276;2022-07-03T17:19:31;26.00;1.00
9949;DHT22;5013;51.840;8.276;2022-07-03T17:21:57;26.00;1.00
9949;DHT22;5013;51.840;8.276;2022-07-03T17:24:28;26.00;1.00
9949;DHT22;5013;51.840;8.276;2022-07-03T17:26:59;26.00;1.00
9949;DHT22;5013;51.840;8.276;2022-07-03T17:29:44;26.10;1.00
9949;DHT22;5013;51.840;8.276;2022-07-03T17:32:13;25.90;1.00
9949;DHT22;5013;51.840;8.276;2022-07-03T17:34:42;25.70;1.00
9949;DHT22;5013;51.840;8.276;2022-07-03T17:37:11;25.60;1.00
9949;DHT22;5013;51.840;8.276;2022-07-03T17:39:40;25.60;1.00
9949;DHT22;5013;51.840;8.276;2022-07-03T17:42:08;25.40;1.00
9949;DHT22;5013;51.840;8.276;2022-07-03T17:44:41;25.40;1.00
9949;DHT22;5013;51.840;8.276;2022-07-03T17:47:11;25.20;1.00
9949;DHT22;5013;51.840;8.276;2022-07-03T17:49:39;25.10;1.00
9949;DHT22;5013;51.840;8.276;2022-07-03T17:52:13;25.10;1.00
9949;DHT22;5013;51.840;8.276;2022-07-03T17:54:41;25.10;1.00
9949;DHT22;5013;51.840;8.276;2022-07-03T17:57:08;25.00;1.00
9949;DHT22;5013;51.840;8.276;2022-07-03T17:59:53;25.00;1.00
9949;DHT22;5013;51.840;8.276;2022-07-03T18:02:20;24.90;1.00
9949;DHT22;5013;51.840;8.276;2022-07-03T18:08:13;25.20;1.00
9949;DHT22;5013;51.840;8.276;2022-07-03T18:10:47;25.20;1.00
9949;DHT22;5013;51.840;8.276;2022-07-03T18:16:44;24.90;1.00
9949;DHT22;5013;51.840;8.276;2022-07-03T18:22:32;24.50;1.00
9949;DHT22;5013;51.840;8.276;2022-07-03T18:25:02;24.40;1.00
9949;DHT22;5013;51.840;8.276;2022-07-03T18:27:30;24.30;1.00
9949;DHT22;5013;51.840;8.276;2022-07-03T18:29:56;24.30;1.00
9949;DHT22;5013;51.840;8.276;2022-07-03T18:35:45;24.40;1.00
9949;DHT22;5013;51.840;8.276;2022-07-03T18:38:12;24.20;1.00
9949;DHT22;5013;51.840;8.276;2022-07-03T18:40:39;24.10;1.00
9949;DHT22;5013;51.840;8.276;2022-07-03T18:43:05;24.10;1.00